sensor_id;sensor_type;location;lat;lon;timestamp;P1;durP1;ratioP1;P2;durP2;ratioP2
17091;SDS011;8661;45.700;4.880;2022-07-29T00:02:01;3.37;;;1.87;;
17091;SDS011;8661;45.700;4.880;2022-07-29T00:04:28;5.93;;;2.00;;
17091;SDS011;8661;45.700;4.880;2022-07-29T00:06:56;5.50;;;2.10;;
17091;SDS011;8661;45.700;4.880;2022-07-29T00:09:25;5.63;;;2.13;;
17091;SDS011;8661;45.700;4.880;2022-07-29T00:11:52;5.17;;;2.23;;
17091;SDS011;8661;45.700;4.880;2022-07-29T00:14:22;2.47;;;1.93;;
17091;SDS011;8661;45.700;4.880;2022-07-29T00:16:50;3.20;;;1.90;;
17091;SDS011;8661;45.700;4.880;2022-07-29T00:19:17;2.90;;;2.00;;
17091;SDS011;8661;45.700;4.880;2022-07-29T00:21:46;2.47;;;1.80;;
17091;SDS011;8661;45.700;4.880;2022-07-29T00:24:13;4.50;;;1.80;;
17091;SDS011;8661;45.700;4.880;2022-07-29T00:26:41;2.70;;;1.90;;
17091;SDS011;8661;45.700;4.880;2022-07-29T00:29:09;2.57;;;1.90;;
17091;SDS011;8661;45.700;4.880;2022-07-29T00:31:36;3.90;;;2.20;;
17091;SDS011;8661;45.700;4.880;2022-07-29T00:34:03;1.93;;;1.80;;
17091;SDS011;8661;45.700;4.880;2022-07-29T00:36:31;5.90;;;2.20;;
17091;SDS011;8661;45.700;4.880;2022-07-29T00:38:57;5.53;;;2.20;;
17091;SDS011;8661;45.700;4.880;2022-07-29T00:41:24;5.63;;;2.27;;
17091;SDS011;8661;45.700;4.880;2022-07-29T00:43:52;7.27;;;2.57;;
17091;SDS011;8661;45.700;4.880;2022-07-29T00:46:19;4.30;;;2.00;;
17091;SDS011;8661;45.700;4.880;2022-07-29T00:48:46;2.27;;;2.00;;
17091;SDS011;8661;45.700;4.880;2022-07-29T00:51:13;5.90;;;2.10;;
17091;SDS011;8661;45.700;4.880;2022-07-29T00:53:40;2.93;;;2.10;;
17091;SDS011;8661;45.700;4.880;2022-07-29T00:56:08;4.73;;;1.87;;
17091;SDS011;8661;45.700;4.880;2022-07-29T00:58:35;3.77;;;1.97;;
17091;SDS011;8661;45.700;4.880;2022-07-29T01:01:03;6.10;;;2.20;;
17091;SDS011;8661;45.700;4.880;2022-07-29T01:03:30;2.23;;;1.80;;
17091;SDS011;8661;45.700;4.880;2022-07-29T01:05:57;5.03;;;2.00;;
17091;SDS011;8661;45.700;4.880;2022-07-29T01:08:25;5.87;;;2.30;;
17091;SDS011;8661;45.700;4.880;2022-07-29T01:10:52;6.33;;;2.27;;
17091;SDS011;8661;45.700;4.880;2022-07-29T01:13:20;3.73;;;2.53;;
17091;SDS011;8661;45.700;4.880;2022-07-29T01:15:50;5.20;;;2.17;;
17091;SDS011;8661;45.700;4.880;2022-07-29T01:18:26;3.30;;;2.27;;
17091;SDS011;8661;45.700;4.880;2022-07-29T01:24:11;11.23;;;2.50;;
17091;SDS011;8661;45.700;4.880;2022-07-29T01:26:51;5.63;;;2.33;;
17091;SDS011;8661;45.700;4.880;2022-07-29T01:29:25;4.93;;;2.20;;
17091;SDS011;8661;45.700;4.880;2022-07-29T01:31:56;3.97;;;2.30;;
17091;SDS011;8661;45.700;4.880;2022-07-29T01:34:27;3.87;;;2.27;;
17091;SDS011;8661;45.700;4.880;2022-07-29T01:37:03;4.70;;;2.40;;
17091;SDS011;8661;45.700;4.880;2022-07-29T01:39:34;4.23;;;2.10;;
17091;SDS011;8661;45.700;4.880;2022-07-29T01:42:05;8.73;;;2.30;;
17091;SDS011;8661;45.700;4.880;2022-07-29T01:44:41;3.60;;;2.20;;
17091;SDS011;8661;45.700;4.880;2022-07-29T01:47:17;4.80;;;2.03;;
17091;SDS011;8661;45.700;4.880;2022-07-29T01:49:47;3.23;;;2.07;;
17091;SDS011;8661;45.700;4.880;2022-07-29T01:52:19;6.63;;;2.13;;
17091;SDS011;8661;45.700;4.880;2022-07-29T01:54:51;4.57;;;2.13;;
17091;SDS011;8661;45.700;4.880;2022-07-29T01:57:21;6.53;;;2.40;;
17091;SDS011;8661;45.700;4.880;2022-07-29T01:59:54;3.27;;;2.27;;
17091;SDS011;8661;45.700;4.880;2022-07-29T02:02:23;3.83;;;2.40;;
17091;SDS011;8661;45.700;4.880;2022-07-29T02:04:52;5.07;;;2.40;;
17091;SDS011;8661;45.700;4.880;2022-07-29T02:07:21;4.27;;;2.40;;
17091;SDS011;8661;45.700;4.880;2022-07-29T02:09:49;6.63;;;2.83;;
17091;SDS011;8661;45.700;4.880;2022-07-29T02:12:17;4.50;;;2.70;;
17091;SDS011;8661;45.700;4.880;2022-07-29T02:14:47;5.87;;;2.63;;
17091;SDS011;8661;45.700;4.880;2022-07-29T02:17:19;4.37;;;2.70;;
17091;SDS011;8661;45.700;4.880;2022-07-29T02:19:49;5.83;;;2.70;;
17091;SDS011;8661;45.700;4.880;2022-07-29T02:22:17;4.93;;;2.70;;
17091;SDS011;8661;45.700;4.880;2022-07-29T02:24:46;5.73;;;2.53;;
17091;SDS011;8661;45.700;4.880;2022-07-29T02:27:15;3.40;;;2.10;;
17091;SDS011;8661;45.700;4.880;2022-07-29T02:29:45;3.87;;;2.30;;
17091;SDS011;8661;45.700;4.880;2022-07-29T02:32:13;5.73;;;2.60;;
17091;SDS011;8661;45.700;4.880;2022-07-29T02:34:43;6.23;;;2.13;;
17091;SDS011;8661;45.700;4.880;2022-07-29T02:37:11;4.67;;;2.20;;
17091;SDS011;8661;45.700;4.880;2022-07-29T02:39:39;4.70;;;2.00;;
17091;SDS011;8661;45.700;4.880;2022-07-29T02:42:10;2.57;;;2.07;;
17091;SDS011;8661;45.700;4.880;2022-07-29T02:44:39;3.50;;;1.90;;
17091;SDS011;8661;45.700;4.880;2022-07-29T02:47:07;2.27;;;1.90;;
17091;SDS011;8661;45.700;4.880;2022-07-29T02:49:41;3.50;;;1.90;;
17091;SDS011;8661;45.700;4.880;2022-07-29T02:52:18;5.17;;;1.73;;
17091;SDS011;8661;45.700;4.880;2022-07-29T02:54:50;3.87;;;1.93;;
17091;SDS011;8661;45.700;4.880;2022-07-29T02:57:22;2.70;;;1.70;;
17091;SDS011;8661;45.700;4.880;2022-07-29T03:00:02;3.23;;;1.80;;
17091;SDS011;8661;45.700;4.880;2022-07-29T03:02:33;2.33;;;1.67;;
17091;SDS011;8661;45.700;4.880;2022-07-29T03:05:04;6.47;;;2.00;;
17091;SDS011;8661;45.700;4.880;2022-07-29T03:07:34;3.10;;;1.80;;
17091;SDS011;8661;45.700;4.880;2022-07-29T03:10:03;3.47;;;1.87;;
17091;SDS011;8661;45.700;4.880;2022-07-29T03:12:32;2.37;;;1.83;;
17091;SDS011;8661;45.700;4.880;2022-07-29T03:15:00;3.83;;;1.80;;
17091;SDS011;8661;45.700;4.880;2022-07-29T03:17:27;5.27;;;1.70;;
17091;SDS011;8661;45.700;4.880;2022-07-29T03:19:57;7.07;;;2.97;;
17091;SDS011;8661;45.700;4.880;2022-07-29T03:22:26;2.57;;;2.20;;
17091;SDS011;8661;45.700;4.880;2022-07-29T03:24:53;3.90;;;1.73;;
17091;SDS011;8661;45.700;4.880;2022-07-29T03:27:20;2.20;;;1.80;;
17091;SDS011;8661;45.700;4.880;2022-07-29T03:29:47;3.47;;;1.70;;
17091;SDS011;8661;45.700;4.880;2022-07-29T03:32:14;5.13;;;1.80;;
17091;SDS011;8661;45.700;4.880;2022-07-29T03:34:42;7.60;;;2.40;;
17091;SDS011;8661;45.700;4.880;2022-07-29T03:37:09;2.50;;;1.83;;
17091;SDS011;8661;45.700;4.880;2022-07-29T03:39:38;2.87;;;1.67;;
17091;SDS011;8661;45.700;4.880;2022-07-29T03:42:08;4.23;;;2.20;;
17091;SDS011;8661;45.700;4.880;2022-07-29T03:44:40;3.00;;;1.80;;
17091;SDS011;8661;45.700;4.880;2022-07-29T03:47:09;2.73;;;2.00;;
17091;SDS011;8661;45.700;4.880;2022-07-29T03:49:37;5.57;;;3.57;;
17091;SDS011;8661;45.700;4.880;2022-07-29T03:52:05;7.43;;;2.53;;
17091;SDS011;8661;45.700;4.880;2022-07-29T03:54:32;3.27;;;2.07;;
17091;SDS011;8661;45.700;4.880;2022-07-29T03:57:01;6.90;;;1.83;;
17091;SDS011;8661;45.700;4.880;2022-07-29T03:59:29;5.23;;;1.93;;
17091;SDS011;8661;45.700;4.880;2022-07-29T04:01:59;3.85;;;2.00;;
17091;SDS011;8661;45.700;4.880;2022-07-29T04:04:28;5.33;;;2.00;;
17091;SDS011;8661;45.700;4.880;2022-07-29T04:06:58;4.60;;;1.90;;
17091;SDS011;8661;45.700;4.880;2022-07-29T04:09:25;7.03;;;2.07;;
17091;SDS011;8661;45.700;4.880;2022-07-29T04:11:52;4.87;;;2.13;;
17091;SDS011;8661;45.700;4.880;2022-07-29T04:14:20;6.77;;;2.33;;
17091;SDS011;8661;45.700;4.880;2022-07-29T04:16:47;3.43;;;2.00;;
17091;SDS011;8661;45.700;4.880;2022-07-29T04:19:14;11.33;;;1.70;;
17091;SDS011;8661;45.700;4.880;2022-07-29T04:21:41;4.60;;;1.83;;
17091;SDS011;8661;45.700;4.880;2022-07-29T04:24:13;6.73;;;1.80;;
17091;SDS011;8661;45.700;4.880;2022-07-29T04:26:40;4.40;;;2.27;;
17091;SDS011;8661;45.700;4.880;2022-07-29T04:29:07;4.80;;;1.97;;
17091;SDS011;8661;45.700;4.880;2022-07-29T04:31:36;6.77;;;2.60;;
17091;SDS011;8661;45.700;4.880;2022-07-29T04:34:03;8.80;;;2.60;;
17091;SDS011;8661;45.700;4.880;2022-07-29T04:36:30;6.07;;;2.30;;
17091;SDS011;8661;45.700;4.880;2022-07-29T04:38:57;2.10;;;1.83;;
17091;SDS011;8661;45.700;4.880;2022-07-29T04:41:26;4.63;;;1.83;;
17091;SDS011;8661;45.700;4.880;2022-07-29T04:43:53;8.40;;;1.90;;
17091;SDS011;8661;45.700;4.880;2022-07-29T04:46:20;6.63;;;2.10;;
17091;SDS011;8661;45.700;4.880;2022-07-29T04:48:49;7.33;;;2.03;;
17091;SDS011;8661;45.700;4.880;2022-07-29T04:51:16;7.53;;;1.93;;
17091;SDS011;8661;45.700;4.880;2022-07-29T04:53:43;4.97;;;2.00;;
17091;SDS011;8661;45.700;4.880;2022-07-29T04:56:10;7.03;;;2.40;;
17091;SDS011;8661;45.700;4.880;2022-07-29T04:58:37;7.30;;;2.40;;
17091;SDS011;8661;45.700;4.880;2022-07-29T05:01:08;4.00;;;1.90;;
17091;SDS011;8661;45.700;4.880;2022-07-29T05:03:35;10.60;;;2.40;;
17091;SDS011;8661;45.700;4.880;2022-07-29T05:06:03;7.03;;;1.73;;
17091;SDS011;8661;45.700;4.880;2022-07-29T05:08:30;5.73;;;2.80;;
17091;SDS011;8661;45.700;4.880;2022-07-29T05:10:57;3.50;;;2.10;;
17091;SDS011;8661;45.700;4.880;2022-07-29T05:13:24;10.17;;;4.57;;
17091;SDS011;8661;45.700;4.880;2022-07-29T05:15:51;12.97;;;4.43;;
17091;SDS011;8661;45.700;4.880;2022-07-29T05:18:18;6.50;;;3.17;;
17091;SDS011;8661;45.700;4.880;2022-07-29T05:20:45;5.53;;;2.37;;
17091;SDS011;8661;45.700;4.880;2022-07-29T05:23:13;9.73;;;2.33;;
17091;SDS011;8661;45.700;4.880;2022-07-29T05:25:40;4.17;;;2.00;;
17091;SDS011;8661;45.700;4.880;2022-07-29T05:28:07;6.53;;;1.90;;
17091;SDS011;8661;45.700;4.880;2022-07-29T05:30:34;6.77;;;1.80;;
17091;SDS011;8661;45.700;4.880;2022-07-29T05:33:01;8.90;;;1.93;;
17091;SDS011;8661;45.700;4.880;2022-07-29T05:35:31;15.33;;;2.27;;
17091;SDS011;8661;45.700;4.880;2022-07-29T05:37:59;16.67;;;2.57;;
17091;SDS011;8661;45.700;4.880;2022-07-29T05:40:28;14.47;;;2.20;;
17091;SDS011;8661;45.700;4.880;2022-07-29T05:42:55;9.27;;;2.10;;
17091;SDS011;8661;45.700;4.880;2022-07-29T05:45:22;10.83;;;2.33;;
17091;SDS011;8661;45.700;4.880;2022-07-29T05:47:49;17.10;;;2.37;;
17091;SDS011;8661;45.700;4.880;2022-07-29T05:50:16;17.33;;;3.53;;
17091;SDS011;8661;45.700;4.880;2022-07-29T05:52:43;22.40;;;4.30;;
17091;SDS011;8661;45.700;4.880;2022-07-29T05:55:10;22.40;;;3.30;;
17091;SDS011;8661;45.700;4.880;2022-07-29T05:57:38;16.67;;;2.50;;
17091;SDS011;8661;45.700;4.880;2022-07-29T06:00:06;12.73;;;2.40;;
17091;SDS011;8661;45.700;4.880;2022-07-29T06:02:33;9.43;;;2.70;;
17091;SDS011;8661;45.700;4.880;2022-07-29T06:05:00;9.80;;;2.07;;
17091;SDS011;8661;45.700;4.880;2022-07-29T06:07:27;10.10;;;2.10;;
17091;SDS011;8661;45.700;4.880;2022-07-29T06:09:55;5.03;;;2.10;;
17091;SDS011;8661;45.700;4.880;2022-07-29T06:12:22;12.53;;;2.30;;
17091;SDS011;8661;45.700;4.880;2022-07-29T06:14:50;5.87;;;2.00;;
17091;SDS011;8661;45.700;4.880;2022-07-29T06:17:17;7.63;;;2.00;;
17091;SDS011;8661;45.700;4.880;2022-07-29T06:19:47;8.23;;;2.10;;
17091;SDS011;8661;45.700;4.880;2022-07-29T06:22:14;7.20;;;2.13;;
17091;SDS011;8661;45.700;4.880;2022-07-29T06:24:42;6.07;;;1.60;;
17091;SDS011;8661;45.700;4.880;2022-07-29T06:27:09;4.23;;;2.10;;
17091;SDS011;8661;45.700;4.880;2022-07-29T06:29:36;12.43;;;2.20;;
17091;SDS011;8661;45.700;4.880;2022-07-29T06:32:05;18.07;;;2.77;;
17091;SDS011;8661;45.700;4.880;2022-07-29T06:34:34;25.03;;;3.27;;
17091;SDS011;8661;45.700;4.880;2022-07-29T06:37:05;20.30;;;2.90;;
17091;SDS011;8661;45.700;4.880;2022-07-29T06:39:33;14.63;;;2.10;;
17091;SDS011;8661;45.700;4.880;2022-07-29T06:42:01;6.57;;;2.13;;
17091;SDS011;8661;45.700;4.880;2022-07-29T06:44:29;8.83;;;2.93;;
17091;SDS011;8661;45.700;4.880;2022-07-29T06:46:56;7.80;;;2.30;;
17091;SDS011;8661;45.700;4.880;2022-07-29T06:49:24;7.83;;;2.40;;
17091;SDS011;8661;45.700;4.880;2022-07-29T06:51:52;8.20;;;1.87;;
17091;SDS011;8661;45.700;4.880;2022-07-29T06:54:20;15.00;;;3.03;;
17091;SDS011;8661;45.700;4.880;2022-07-29T06:56:47;8.07;;;2.27;;
17091;SDS011;8661;45.700;4.880;2022-07-29T06:59:14;9.63;;;2.53;;
17091;SDS011;8661;45.700;4.880;2022-07-29T07:01:41;6.43;;;2.27;;
17091;SDS011;8661;45.700;4.880;2022-07-29T07:04:09;8.67;;;2.07;;
17091;SDS011;8661;45.700;4.880;2022-07-29T07:06:38;11.80;;;2.33;;
17091;SDS011;8661;45.700;4.880;2022-07-29T07:09:06;7.97;;;2.77;;
17091;SDS011;8661;45.700;4.880;2022-07-29T07:11:33;11.67;;;2.70;;
17091;SDS011;8661;45.700;4.880;2022-07-29T07:14:00;24.87;;;3.10;;
17091;SDS011;8661;45.700;4.880;2022-07-29T07:16:27;6.73;;;2.37;;
17091;SDS011;8661;45.700;4.880;2022-07-29T07:18:54;7.50;;;2.50;;
17091;SDS011;8661;45.700;4.880;2022-07-29T07:21:20;9.37;;;2.03;;
17091;SDS011;8661;45.700;4.880;2022-07-29T07:23:49;21.50;;;2.93;;
17091;SDS011;8661;45.700;4.880;2022-07-29T07:26:16;12.53;;;2.90;;
17091;SDS011;8661;45.700;4.880;2022-07-29T07:28:42;7.47;;;2.67;;
17091;SDS011;8661;45.700;4.880;2022-07-29T07:31:09;7.07;;;2.23;;
17091;SDS011;8661;45.700;4.880;2022-07-29T07:33:37;11.53;;;2.77;;
17091;SDS011;8661;45.700;4.880;2022-07-29T07:36:04;7.33;;;2.33;;
17091;SDS011;8661;45.700;4.880;2022-07-29T07:38:31;6.30;;;1.97;;
17091;SDS011;8661;45.700;4.880;2022-07-29T07:40:59;5.17;;;1.97;;
17091;SDS011;8661;45.700;4.880;2022-07-29T07:43:27;16.50;;;2.20;;
17091;SDS011;8661;45.700;4.880;2022-07-29T07:45:54;9.47;;;2.40;;
17091;SDS011;8661;45.700;4.880;2022-07-29T07:48:20;8.30;;;2.10;;
17091;SDS011;8661;45.700;4.880;2022-07-29T07:50:47;7.60;;;2.20;;
17091;SDS011;8661;45.700;4.880;2022-07-29T07:53:15;5.50;;;1.97;;
17091;SDS011;8661;45.700;4.880;2022-07-29T07:55:42;5.10;;;2.10;;
17091;SDS011;8661;45.700;4.880;2022-07-29T07:58:11;4.67;;;2.00;;
17091;SDS011;8661;45.700;4.880;2022-07-29T08:00:38;5.30;;;1.80;;
17091;SDS011;8661;45.700;4.880;2022-07-29T08:03:05;9.83;;;2.00;;
17091;SDS011;8661;45.700;4.880;2022-07-29T08:05:33;5.70;;;1.70;;
17091;SDS011;8661;45.700;4.880;2022-07-29T08:08:01;4.60;;;1.93;;
17091;SDS011;8661;45.700;4.880;2022-07-29T08:10:28;3.53;;;1.90;;
17091;SDS011;8661;45.700;4.880;2022-07-29T08:13:13;5.00;;;1.90;;
17091;SDS011;8661;45.700;4.880;2022-07-29T08:15:40;9.80;;;2.07;;
17091;SDS011;8661;45.700;4.880;2022-07-29T08:18:09;6.23;;;2.27;;
17091;SDS011;8661;45.700;4.880;2022-07-29T08:20:37;7.27;;;2.23;;
17091;SDS011;8661;45.700;4.880;2022-07-29T08:23:05;10.27;;;2.20;;
17091;SDS011;8661;45.700;4.880;2022-07-29T08:25:33;13.43;;;1.90;;
17091;SDS011;8661;45.700;4.880;2022-07-29T08:28:03;8.00;;;2.17;;
17091;SDS011;8661;45.700;4.880;2022-07-29T08:30:32;23.40;;;2.73;;
17091;SDS011;8661;45.700;4.880;2022-07-29T08:33:00;17.70;;;2.87;;
17091;SDS011;8661;45.700;4.880;2022-07-29T08:35:27;12.13;;;2.43;;
17091;SDS011;8661;45.700;4.880;2022-07-29T08:37:54;12.23;;;2.73;;
17091;SDS011;8661;45.700;4.880;2022-07-29T08:40:22;9.13;;;2.30;;
17091;SDS011;8661;45.700;4.880;2022-07-29T08:42:51;9.50;;;2.67;;
17091;SDS011;8661;45.700;4.880;2022-07-29T08:45:19;8.17;;;2.33;;
17091;SDS011;8661;45.700;4.880;2022-07-29T08:47:50;9.40;;;2.70;;
17091;SDS011;8661;45.700;4.880;2022-07-29T08:50:18;8.30;;;1.90;;
17091;SDS011;8661;45.700;4.880;2022-07-29T08:52:52;8.73;;;2.10;;
17091;SDS011;8661;45.700;4.880;2022-07-29T08:55:21;5.43;;;2.50;;
17091;SDS011;8661;45.700;4.880;2022-07-29T08:57:49;3.87;;;2.30;;
17091;SDS011;8661;45.700;4.880;2022-07-29T09:00:17;11.80;;;2.50;;
17091;SDS011;8661;45.700;4.880;2022-07-29T09:02:45;6.60;;;2.47;;
17091;SDS011;8661;45.700;4.880;2022-07-29T09:05:18;7.83;;;2.20;;
17091;SDS011;8661;45.700;4.880;2022-07-29T09:07:46;10.63;;;3.40;;
17091;SDS011;8661;45.700;4.880;2022-07-29T09:10:13;8.80;;;2.77;;
17091;SDS011;8661;45.700;4.880;2022-07-29T09:12:40;7.33;;;2.40;;
17091;SDS011;8661;45.700;4.880;2022-07-29T09:15:07;11.97;;;2.73;;
17091;SDS011;8661;45.700;4.880;2022-07-29T09:17:41;7.27;;;3.10;;
17091;SDS011;8661;45.700;4.880;2022-07-29T09:20:09;9.93;;;3.43;;
17091;SDS011;8661;45.700;4.880;2022-07-29T09:22:39;16.67;;;3.63;;
17091;SDS011;8661;45.700;4.880;2022-07-29T09:25:07;5.63;;;3.17;;
17091;SDS011;8661;45.700;4.880;2022-07-29T09:27:34;4.10;;;3.47;;
17091;SDS011;8661;45.700;4.880;2022-07-29T09:30:02;8.30;;;3.27;;
17091;SDS011;8661;45.700;4.880;2022-07-29T09:35:24;7.37;;;3.00;;
17091;SDS011;8661;45.700;4.880;2022-07-29T09:37:53;4.40;;;3.10;;
17091;SDS011;8661;45.700;4.880;2022-07-29T09:40:20;7.17;;;3.27;;
17091;SDS011;8661;45.700;4.880;2022-07-29T09:42:49;6.57;;;3.63;;
17091;SDS011;8661;45.700;4.880;2022-07-29T09:45:28;6.00;;;3.10;;
17091;SDS011;8661;45.700;4.880;2022-07-29T09:47:55;6.23;;;3.50;;
17091;SDS011;8661;45.700;4.880;2022-07-29T09:50:34;9.27;;;3.57;;
17091;SDS011;8661;45.700;4.880;2022-07-29T09:53:05;8.00;;;3.07;;
17091;SDS011;8661;45.700;4.880;2022-07-29T09:55:41;6.67;;;3.30;;
17091;SDS011;8661;45.700;4.880;2022-07-29T09:58:16;6.40;;;3.20;;
17091;SDS011;8661;45.700;4.880;2022-07-29T10:00:44;5.97;;;3.80;;
17091;SDS011;8661;45.700;4.880;2022-07-29T10:03:12;9.23;;;3.53;;
17091;SDS011;8661;45.700;4.880;2022-07-29T10:05:39;6.43;;;3.53;;
17091;SDS011;8661;45.700;4.880;2022-07-29T10:08:08;8.33;;;3.50;;
17091;SDS011;8661;45.700;4.880;2022-07-29T10:10:38;3.80;;;3.10;;
17091;SDS011;8661;45.700;4.880;2022-07-29T10:13:09;6.80;;;3.20;;
17091;SDS011;8661;45.700;4.880;2022-07-29T10:15:37;7.30;;;2.90;;
17091;SDS011;8661;45.700;4.880;2022-07-29T10:18:09;5.63;;;3.40;;
17091;SDS011;8661;45.700;4.880;2022-07-29T10:20:42;4.30;;;2.60;;
17091;SDS011;8661;45.700;4.880;2022-07-29T10:23:12;6.63;;;2.53;;
17091;SDS011;8661;45.700;4.880;2022-07-29T10:25:40;5.67;;;2.90;;
17091;SDS011;8661;45.700;4.880;2022-07-29T10:28:08;6.57;;;2.80;;
17091;SDS011;8661;45.700;4.880;2022-07-29T10:30:35;6.13;;;3.13;;
17091;SDS011;8661;45.700;4.880;2022-07-29T10:33:10;4.57;;;3.20;;
17091;SDS011;8661;45.700;4.880;2022-07-29T10:35:54;7.57;;;3.17;;
17091;SDS011;8661;45.700;4.880;2022-07-29T10:38:41;7.17;;;3.20;;
17091;SDS011;8661;45.700;4.880;2022-07-29T10:41:19;5.80;;;2.77;;
17091;SDS011;8661;45.700;4.880;2022-07-29T10:44:00;5.73;;;2.80;;
17091;SDS011;8661;45.700;4.880;2022-07-29T10:46:28;7.70;;;2.83;;
17091;SDS011;8661;45.700;4.880;2022-07-29T10:49:04;6.70;;;2.90;;
17091;SDS011;8661;45.700;4.880;2022-07-29T10:51:53;5.97;;;2.93;;
17091;SDS011;8661;45.700;4.880;2022-07-29T10:54:39;3.90;;;2.43;;
17091;SDS011;8661;45.700;4.880;2022-07-29T10:57:25;4.87;;;2.50;;
17091;SDS011;8661;45.700;4.880;2022-07-29T11:02:54;4.10;;;2.43;;
17091;SDS011;8661;45.700;4.880;2022-07-29T11:05:23;6.63;;;3.00;;
17091;SDS011;8661;45.700;4.880;2022-07-29T11:10:50;3.83;;;2.50;;
17091;SDS011;8661;45.700;4.880;2022-07-29T11:16:16;4.13;;;2.50;;
17091;SDS011;8661;45.700;4.880;2022-07-29T11:21:47;3.40;;;1.90;;
17091;SDS011;8661;45.700;4.880;2022-07-29T11:24:17;3.87;;;2.23;;
17091;SDS011;8661;45.700;4.880;2022-07-29T11:29:54;5.20;;;2.10;;
17091;SDS011;8661;45.700;4.880;2022-07-29T11:32:22;2.67;;;1.70;;
17091;SDS011;8661;45.700;4.880;2022-07-29T11:37:39;4.33;;;1.97;;
17091;SDS011;8661;45.700;4.880;2022-07-29T11:40:13;2.70;;;1.83;;
17091;SDS011;8661;45.700;4.880;2022-07-29T11:42:43;4.17;;;2.00;;
17091;SDS011;8661;45.700;4.880;2022-07-29T11:45:16;3.33;;;1.67;;
17091;SDS011;8661;45.700;4.880;2022-07-29T11:47:51;3.60;;;1.90;;
17091;SDS011;8661;45.700;4.880;2022-07-29T11:50:30;3.53;;;1.60;;
17091;SDS011;8661;45.700;4.880;2022-07-29T11:53:00;3.73;;;1.77;;
17091;SDS011;8661;45.700;4.880;2022-07-29T11:55:28;3.50;;;2.00;;
17091;SDS011;8661;45.700;4.880;2022-07-29T11:57:58;4.60;;;2.00;;
17091;SDS011;8661;45.700;4.880;2022-07-29T12:00:27;3.00;;;1.60;;
17091;SDS011;8661;45.700;4.880;2022-07-29T12:02:56;2.60;;;1.80;;
17091;SDS011;8661;45.700;4.880;2022-07-29T12:05:31;3.33;;;2.00;;
17091;SDS011;8661;45.700;4.880;2022-07-29T12:08:09;3.78;;;1.88;;
17091;SDS011;8661;45.700;4.880;2022-07-29T12:10:41;6.93;;;1.90;;
17091;SDS011;8661;45.700;4.880;2022-07-29T12:13:10;4.20;;;1.60;;
17091;SDS011;8661;45.700;4.880;2022-07-29T12:15:38;5.60;;;1.70;;
17091;SDS011;8661;45.700;4.880;2022-07-29T12:18:10;4.70;;;1.80;;
17091;SDS011;8661;45.700;4.880;2022-07-29T12:20:38;2.75;;;1.50;;
17091;SDS011;8661;45.700;4.880;2022-07-29T12:23:05;3.60;;;1.70;;
17091;SDS011;8661;45.700;4.880;2022-07-29T12:25:34;3.38;;;1.75;;
17091;SDS011;8661;45.700;4.880;2022-07-29T12:28:02;3.45;;;1.63;;
17091;SDS011;8661;45.700;4.880;2022-07-29T12:30:36;4.38;;;2.00;;
17091;SDS011;8661;45.700;4.880;2022-07-29T12:35:54;3.15;;;1.60;;
17091;SDS011;8661;45.700;4.880;2022-07-29T12:38:23;3.90;;;1.83;;
17091;SDS011;8661;45.700;4.880;2022-07-29T12:40:51;1.58;;;1.30;;
17091;SDS011;8661;45.700;4.880;2022-07-29T12:43:19;1.73;;;1.63;;
17091;SDS011;8661;45.700;4.880;2022-07-29T12:45:49;5.22;;;1.60;;
17091;SDS011;8661;45.700;4.880;2022-07-29T12:48:31;2.75;;;1.88;;
17091;SDS011;8661;45.700;4.880;2022-07-29T12:51:00;2.13;;;1.63;;
17091;SDS011;8661;45.700;4.880;2022-07-29T12:53:27;2.42;;;1.60;;
17091;SDS011;8661;45.700;4.880;2022-07-29T12:55:55;3.95;;;1.65;;
17091;SDS011;8661;45.700;4.880;2022-07-29T12:58:30;2.85;;;1.55;;
17091;SDS011;8661;45.700;4.880;2022-07-29T13:01:03;4.65;;;1.70;;
17091;SDS011;8661;45.700;4.880;2022-07-29T13:06:32;3.47;;;1.73;;
17091;SDS011;8661;45.700;4.880;2022-07-29T13:09:04;2.42;;;1.30;;
17091;SDS011;8661;45.700;4.880;2022-07-29T13:11:34;28.45;;;2.20;;
17091;SDS011;8661;45.700;4.880;2022-07-29T13:14:03;6.03;;;2.00;;
17091;SDS011;8661;45.700;4.880;2022-07-29T13:16:32;4.55;;;1.80;;
17091;SDS011;8661;45.700;4.880;2022-07-29T13:21:58;3.75;;;1.70;;
17091;SDS011;8661;45.700;4.880;2022-07-29T13:24:25;2.72;;;1.50;;
17091;SDS011;8661;45.700;4.880;2022-07-29T13:26:52;4.40;;;1.70;;
17091;SDS011;8661;45.700;4.880;2022-07-29T13:29:19;3.38;;;1.60;;
17091;SDS011;8661;45.700;4.880;2022-07-29T13:31:47;8.02;;;1.60;;
17091;SDS011;8661;45.700;4.880;2022-07-29T13:34:14;3.50;;;1.58;;
17091;SDS011;8661;45.700;4.880;2022-07-29T13:36:43;6.45;;;1.63;;
17091;SDS011;8661;45.700;4.880;2022-07-29T13:39:10;5.18;;;1.52;;
17091;SDS011;8661;45.700;4.880;2022-07-29T13:41:37;4.18;;;1.70;;
17091;SDS011;8661;45.700;4.880;2022-07-29T13:44:04;2.40;;;1.38;;
17091;SDS011;8661;45.700;4.880;2022-07-29T13:46:31;6.95;;;1.92;;
17091;SDS011;8661;45.700;4.880;2022-07-29T13:48:59;3.95;;;1.90;;
17091;SDS011;8661;45.700;4.880;2022-07-29T13:51:26;6.05;;;1.70;;
17091;SDS011;8661;45.700;4.880;2022-07-29T13:53:53;4.95;;;2.42;;
17091;SDS011;8661;45.700;4.880;2022-07-29T13:56:20;6.80;;;2.10;;
17091;SDS011;8661;45.700;4.880;2022-07-29T13:58:47;4.03;;;2.08;;
17091;SDS011;8661;45.700;4.880;2022-07-29T14:01:14;3.13;;;1.65;;
17091;SDS011;8661;45.700;4.880;2022-07-29T14:03:41;3.72;;;1.70;;
17091;SDS011;8661;45.700;4.880;2022-07-29T14:06:09;3.42;;;1.77;;
17091;SDS011;8661;45.700;4.880;2022-07-29T14:08:38;6.32;;;1.98;;
17091;SDS011;8661;45.700;4.880;2022-07-29T14:11:05;5.03;;;2.40;;
17091;SDS011;8661;45.700;4.880;2022-07-29T14:13:33;4.05;;;1.70;;
17091;SDS011;8661;45.700;4.880;2022-07-29T14:16:00;8.55;;;1.88;;
17091;SDS011;8661;45.700;4.880;2022-07-29T14:18:28;4.55;;;2.25;;
17091;SDS011;8661;45.700;4.880;2022-07-29T14:20:56;5.28;;;2.15;;
17091;SDS011;8661;45.700;4.880;2022-07-29T14:23:26;5.57;;;2.00;;
17091;SDS011;8661;45.700;4.880;2022-07-29T14:25:53;3.70;;;2.03;;
17091;SDS011;8661;45.700;4.880;2022-07-29T14:28:21;7.72;;;2.00;;
17091;SDS011;8661;45.700;4.880;2022-07-29T14:30:49;4.97;;;2.00;;
17091;SDS011;8661;45.700;4.880;2022-07-29T14:33:17;6.18;;;1.92;;
17091;SDS011;8661;45.700;4.880;2022-07-29T14:35:44;3.17;;;1.92;;
17091;SDS011;8661;45.700;4.880;2022-07-29T14:38:11;4.53;;;1.80;;
17091;SDS011;8661;45.700;4.880;2022-07-29T14:40:40;3.90;;;1.92;;
17091;SDS011;8661;45.700;4.880;2022-07-29T14:43:07;4.55;;;1.83;;
17091;SDS011;8661;45.700;4.880;2022-07-29T14:45:33;7.03;;;2.10;;
17091;SDS011;8661;45.700;4.880;2022-07-29T14:48:00;6.15;;;2.40;;
17091;SDS011;8661;45.700;4.880;2022-07-29T14:50:27;7.70;;;2.20;;
17091;SDS011;8661;45.700;4.880;2022-07-29T14:52:54;4.63;;;2.25;;
17091;SDS011;8661;45.700;4.880;2022-07-29T14:55:21;5.95;;;1.83;;
17091;SDS011;8661;45.700;4.880;2022-07-29T14:57:50;5.22;;;2.25;;
17091;SDS011;8661;45.700;4.880;2022-07-29T15:00:17;4.07;;;2.03;;
17091;SDS011;8661;45.700;4.880;2022-07-29T15:02:45;4.22;;;1.92;;
17091;SDS011;8661;45.700;4.880;2022-07-29T15:05:12;4.03;;;2.00;;
17091;SDS011;8661;45.700;4.880;2022-07-29T15:07:40;2.35;;;1.70;;
17091;SDS011;8661;45.700;4.880;2022-07-29T15:10:07;2.70;;;2.00;;
17091;SDS011;8661;45.700;4.880;2022-07-29T15:12:34;3.78;;;2.10;;
17091;SDS011;8661;45.700;4.880;2022-07-29T15:15:02;7.07;;;2.10;;
17091;SDS011;8661;45.700;4.880;2022-07-29T15:17:29;4.30;;;2.28;;
17091;SDS011;8661;45.700;4.880;2022-07-29T15:19:56;8.23;;;2.50;;
17091;SDS011;8661;45.700;4.880;2022-07-29T15:22:23;6.60;;;2.20;;
17091;SDS011;8661;45.700;4.880;2022-07-29T15:24:50;6.38;;;2.55;;
17091;SDS011;8661;45.700;4.880;2022-07-29T15:27:17;7.53;;;2.70;;
17091;SDS011;8661;45.700;4.880;2022-07-29T15:29:44;3.17;;;1.90;;
17091;SDS011;8661;45.700;4.880;2022-07-29T15:32:12;5.25;;;1.95;;
17091;SDS011;8661;45.700;4.880;2022-07-29T15:34:39;4.65;;;2.10;;
17091;SDS011;8661;45.700;4.880;2022-07-29T15:37:06;14.18;;;2.22;;
17091;SDS011;8661;45.700;4.880;2022-07-29T15:39:35;4.80;;;2.03;;
17091;SDS011;8661;45.700;4.880;2022-07-29T15:42:05;4.07;;;2.10;;
17091;SDS011;8661;45.700;4.880;2022-07-29T15:44:33;5.43;;;2.00;;